createdAt,value
2022-10-06T00:02:21.153Z,3.35
2022-10-06T00:07:23.984Z,3.55
2022-10-06T00:12:26.780Z,6.03
2022-10-06T00:17:30.869Z,4.45
2022-10-06T00:22:36.866Z,4.47
2022-10-06T00:27:41.807Z,4.38
2022-10-06T00:32:51.798Z,3.25
2022-10-06T00:37:55.151Z,4.70
2022-10-06T00:42:59.392Z,10.63
2022-10-06T00:48:06.459Z,6.38
2022-10-06T00:53:09.438Z,2.15
2022-10-06T00:58:13.165Z,2.28
2022-10-06T01:03:21.498Z,4.10
2022-10-06T01:08:25.966Z,4.30
2022-10-06T01:13:30.152Z,5.75
2022-10-06T01:18:35.935Z,6.22
2022-10-06T01:23:41.260Z,4.57
2022-10-06T01:28:44.051Z,5.30
2022-10-06T01:33:51.414Z,3.95
2022-10-06T01:38:55.486Z,4.82
2022-10-06T01:43:58.232Z,3.03
2022-10-06T01:49:00.976Z,5.32
2022-10-06T01:54:05.197Z,3.47
2022-10-06T01:59:07.937Z,5.50
2022-10-06T02:04:10.761Z,6.18
2022-10-06T02:09:14.901Z,5.60
2022-10-06T02:14:18.050Z,6.35
2022-10-06T02:19:20.790Z,7.15
2022-10-06T02:24:25.066Z,6.15
2022-10-06T02:29:27.795Z,5.38
2022-10-06T02:34:30.531Z,6.57
2022-10-06T02:39:34.564Z,3.95
2022-10-06T02:44:37.294Z,3.60
2022-10-06T02:49:40.013Z,5.93
2022-10-06T02:54:44.346Z,8.05
2022-10-06T02:59:47.086Z,4.78
2022-10-06T03:04:49.841Z,4.38
2022-10-06T03:09:53.948Z,7.00
2022-10-06T03:14:56.650Z,5.82
2022-10-06T03:19:59.439Z,7.03
2022-10-06T03:25:03.948Z,6.55
2022-10-06T03:30:07.867Z,4.90
2022-10-06T03:35:10.918Z,8.13
2022-10-06T03:40:15.218Z,4.95
2022-10-06T03:45:17.968Z,4.47
2022-10-06T03:50:20.757Z,5.32
2022-10-06T03:55:24.931Z,5.50
2022-10-06T04:00:27.909Z,6.57
2022-10-06T04:05:30.632Z,5.43
2022-10-06T04:10:35.635Z,4.15
2022-10-06T04:15:38.371Z,8.43
2022-10-06T04:20:42.141Z,4.63
2022-10-06T04:25:46.205Z,9.40
2022-10-06T04:30:56.733Z,6.95
2022-10-06T04:35:59.850Z,6.80
2022-10-06T04:41:08.539Z,10.40
2022-10-06T04:46:37.532Z,6.68
2022-10-06T04:51:34.386Z,9.38
2022-10-06T04:56:38.419Z,11.18
2022-10-06T05:01:41.154Z,6.90
2022-10-06T05:06:44.171Z,5.43
2022-10-06T05:11:48.358Z,4.78
2022-10-06T05:16:51.480Z,6.03
2022-10-06T05:21:54.249Z,12.52
2022-10-06T05:27:02.133Z,4.70
2022-10-06T05:32:05.767Z,9.07
2022-10-06T05:37:08.558Z,4.38
2022-10-06T05:42:12.611Z,4.55
2022-10-06T05:47:15.352Z,7.00
2022-10-06T05:52:18.082Z,6.85
2022-10-06T05:57:22.129Z,5.10
2022-10-06T06:02:24.891Z,6.05
2022-10-06T06:07:27.726Z,6.40
2022-10-06T06:12:31.846Z,3.97
2022-10-06T06:17:34.737Z,3.60
2022-10-06T06:22:37.854Z,4.00
2022-10-06T06:27:42.076Z,3.08
2022-10-06T06:32:44.887Z,6.82
2022-10-06T06:37:48.819Z,3.47
2022-10-06T06:42:53.935Z,3.20
2022-10-06T06:47:56.919Z,3.85
2022-10-06T06:53:02.480Z,1.58
2022-10-06T06:58:06.623Z,2.85
2022-10-06T07:03:14.172Z,3.15
2022-10-06T07:08:21.029Z,1.40
2022-10-06T07:13:25.866Z,4.22
2022-10-06T07:18:46.239Z,2.20
2022-10-06T07:24:08.879Z,2.38
2022-10-06T07:29:12.995Z,4.07
2022-10-06T07:34:15.750Z,1.98
2022-10-06T07:39:18.520Z,4.93
2022-10-06T07:44:23.062Z,4.22
2022-10-06T07:49:27.199Z,4.45
2022-10-06T07:54:30.398Z,2.33
2022-10-06T07:59:35.599Z,3.90
2022-10-06T08:04:38.439Z,2.63
2022-10-06T08:09:41.188Z,5.47
2022-10-06T08:14:45.274Z,6.00
2022-10-06T08:19:48.800Z,2.78
2022-10-06T08:25:05.366Z,3.60
2022-10-06T08:30:12.409Z,3.10
2022-10-06T08:35:15.181Z,6.63
2022-10-06T08:40:17.932Z,3.30
2022-10-06T08:45:25.294Z,3.25
2022-10-06T08:50:30.258Z,5.60
2022-10-06T08:55:39.582Z,7.35
2022-10-06T09:00:43.803Z,5.03
2022-10-06T09:05:48.207Z,3.97
2022-10-06T09:11:04.580Z,11.60
2022-10-06T09:16:11.588Z,11.60
2022-10-06T09:21:18.482Z,19.88
2022-10-06T09:26:23.564Z,7.32
2022-10-06T09:31:29.423Z,4.20
2022-10-06T09:36:32.573Z,3.15
2022-10-06T09:41:40.692Z,2.53
2022-10-06T09:46:44.734Z,2.65
2022-10-06T09:52:01.903Z,1.63
2022-10-06T09:57:11.466Z,3.97
2022-10-06T10:02:36.848Z,4.50
2022-10-06T10:07:39.843Z,6.85
2022-10-06T10:12:50.519Z,3.90
2022-10-06T10:17:56.941Z,4.15
2022-10-06T10:23:02.349Z,4.60
2022-10-06T10:28:17.984Z,3.53
2022-10-06T10:33:31.087Z,7.43
2022-10-06T10:38:40.861Z,7.70
2022-10-06T10:43:51.066Z,3.35
2022-10-06T10:49:01.393Z,7.18
2022-10-06T10:54:10.200Z,3.75
2022-10-06T10:59:18.883Z,3.13
2022-10-06T11:04:22.978Z,6.47
2022-10-06T11:09:32.128Z,3.90
2022-10-06T11:14:57.398Z,3.33
2022-10-06T11:20:10.345Z,6.45
2022-10-06T11:25:22.565Z,4.22
2022-10-06T11:30:26.526Z,6.03
2022-10-06T11:35:36.013Z,2.85
2022-10-06T11:40:55.529Z,3.53
2022-10-06T11:46:06.541Z,5.13
2022-10-06T11:51:37.713Z,6.05
2022-10-06T11:56:40.951Z,3.85
2022-10-06T12:01:56.062Z,7.70
2022-10-06T12:07:02.091Z,6.43
2022-10-06T12:12:43.978Z,5.90
2022-10-06T12:17:55.040Z,3.92
2022-10-06T12:23:05.508Z,4.53
2022-10-06T12:28:17.960Z,4.78
2022-10-06T12:33:35.135Z,4.70
2022-10-06T12:38:44.395Z,5.00
2022-10-06T12:44:21.857Z,5.55
2022-10-06T12:49:48.811Z,8.88
2022-10-06T12:55:07.245Z,5.75
2022-10-06T13:00:31.170Z,4.20
2022-10-06T13:05:35.879Z,6.75
2022-10-06T13:10:40.032Z,5.97
2022-10-06T13:15:44.484Z,5.45
2022-10-06T13:20:49.123Z,3.40
2022-10-06T13:25:55.621Z,8.50
2022-10-06T13:36:10.400Z,3.65
2022-10-06T13:41:21.851Z,5.05
2022-10-06T13:46:26.941Z,6.28
2022-10-06T13:51:31.603Z,6.57
2022-10-06T13:56:39.406Z,6.55
2022-10-06T14:01:42.552Z,7.68
2022-10-06T14:06:49.646Z,6.07
2022-10-06T14:12:01.605Z,5.20
2022-10-06T14:17:04.793Z,4.80
2022-10-06T14:22:29.753Z,7.18
2022-10-06T14:27:34.210Z,6.80
2022-10-06T14:32:40.070Z,5.15
2022-10-06T14:37:42.774Z,5.88
2022-10-06T14:47:49.507Z,5.38
2022-10-06T14:52:52.236Z,4.53
2022-10-06T14:57:56.710Z,4.30
2022-10-06T15:02:59.562Z,5.60
2022-10-06T15:08:11.764Z,6.35
2022-10-06T15:13:15.827Z,5.88
2022-10-06T15:18:19.107Z,4.32
2022-10-06T15:23:21.891Z,6.88
2022-10-06T15:28:43.737Z,6.00
2022-10-06T15:33:49.798Z,4.40
2022-10-06T15:38:55.634Z,5.03
2022-10-06T15:43:59.860Z,4.53
2022-10-06T15:49:04.555Z,7.45
2022-10-06T15:54:07.346Z,4.93
2022-10-06T15:59:11.698Z,5.45
2022-10-06T16:04:23.108Z,7.13
2022-10-06T16:09:26.936Z,4.95
2022-10-06T16:14:31.363Z,6.47
2022-10-06T16:19:36.638Z,6.32
2022-10-06T16:24:39.502Z,5.97
2022-10-06T16:29:43.584Z,7.35
2022-10-06T16:34:50.268Z,7.72
2022-10-06T16:39:53.068Z,10.05
2022-10-06T16:44:57.146Z,8.98
2022-10-06T16:49:59.888Z,8.82
2022-10-06T16:55:02.913Z,10.48
2022-10-06T17:00:07.918Z,6.40
2022-10-06T17:05:10.623Z,7.13
2022-10-06T17:10:20.542Z,9.38
2022-10-06T17:15:26.179Z,4.57
2022-10-06T17:20:30.852Z,5.45
2022-10-06T17:25:33.796Z,5.47
2022-10-06T17:30:37.838Z,8.38
2022-10-06T17:35:41.590Z,7.53
2022-10-06T17:40:45.032Z,10.82
2022-10-06T17:45:49.396Z,12.93
2022-10-06T17:50:59.551Z,10.73
2022-10-06T17:56:07.414Z,10.65
2022-10-06T18:01:17.583Z,8.88
2022-10-06T18:06:20.844Z,9.15
2022-10-06T18:11:41.585Z,12.90
2022-10-06T18:16:49.835Z,8.57
2022-10-06T18:21:56.664Z,13.95
2022-10-06T18:27:01.377Z,13.35
2022-10-06T18:37:29.926Z,11.00
2022-10-06T18:42:32.671Z,13.00
2022-10-06T18:47:54.233Z,17.67
2022-10-06T18:52:57.229Z,15.45
2022-10-06T18:58:00.596Z,13.02
2022-10-06T19:03:08.015Z,11.63
2022-10-06T19:08:11.867Z,11.02
2022-10-06T19:13:14.663Z,13.35
2022-10-06T19:18:20.282Z,12.55
2022-10-06T19:23:23.090Z,12.40
2022-10-06T19:28:28.483Z,13.18
2022-10-06T19:33:33.635Z,14.43
2022-10-06T19:38:38.651Z,16.02
2022-10-06T19:43:41.531Z,14.95
2022-10-06T19:48:52.729Z,9.07
2022-10-06T19:53:58.706Z,11.57
2022-10-06T19:59:02.148Z,14.80
2022-10-06T20:04:06.618Z,12.67
2022-10-06T20:09:10.626Z,9.17
2022-10-06T20:14:20.759Z,17.63
2022-10-06T20:19:26.122Z,12.97
2022-10-06T20:24:31.114Z,11.07
2022-10-06T20:29:36.569Z,9.97
2022-10-06T20:34:41.802Z,16.80
2022-10-06T20:40:02.167Z,13.17
2022-10-06T20:45:05.683Z,12.77
2022-10-06T20:50:10.991Z,8.83
2022-10-06T20:55:14.543Z,13.67
2022-10-06T21:00:25.570Z,6.53
2022-10-06T21:05:33.119Z,9.67
2022-10-06T21:10:36.105Z,9.47
2022-10-06T21:15:45.592Z,12.47
2022-10-06T21:21:00.610Z,14.60
2022-10-06T21:26:03.723Z,8.47
2022-10-06T21:31:08.703Z,11.43
2022-10-06T21:36:15.441Z,11.90
2022-10-06T21:41:30.447Z,13.73
2022-10-06T21:46:35.568Z,11.47
2022-10-06T21:51:40.719Z,14.07
2022-10-06T21:56:43.855Z,10.57
2022-10-06T22:01:49.783Z,10.20
2022-10-06T22:06:54.100Z,10.47
2022-10-06T22:11:56.970Z,13.53
2022-10-06T22:16:59.815Z,8.70
2022-10-06T22:22:04.140Z,9.37
2022-10-06T22:27:07.002Z,10.00
2022-10-06T22:32:10.131Z,10.53
2022-10-06T22:37:14.354Z,6.80
2022-10-06T22:42:17.209Z,9.33
2022-10-06T22:47:20.247Z,9.00
2022-10-06T22:52:24.865Z,9.67
2022-10-06T22:57:31.540Z,10.97
2022-10-06T23:02:34.354Z,12.07
2022-10-06T23:07:38.558Z,10.83
2022-10-06T23:12:41.468Z,8.30
2022-10-06T23:17:44.919Z,12.33
2022-10-06T23:22:49.303Z,8.80
2022-10-06T23:27:52.127Z,7.00
2022-10-06T23:32:54.954Z,13.13
2022-10-06T23:37:59.161Z,9.97
2022-10-06T23:43:02.061Z,9.63
2022-10-06T23:48:05.036Z,9.60
2022-10-06T23:53:12.156Z,9.27
2022-10-06T23:58:15.545Z,10.57
